Time;durP1;ratioP1;P1;durP2;ratioP2;P2;SDS_P1;SDS_P2;PMS_P1;PMS_P2;Temp;Humidity;BMP_temperature;BMP_pressure;BME280_temperature;BME280_humidity;BME280_pressure;Samples;Min_cycle;Max_cycle;Signal;HPM_P1;HPM_P2
2022/05/16 04:11:01;;;;;;;8.75;6.53;;;;;;;13.08;79.65;100672.91;5555453;32;317402;-88
2022/05/16 04:14:04;;;;;;;8.40;6.75;;;;;;;13.24;79.81;100679.16;5545934;32;34616;-87
2022/05/16 04:17:07;;;;;;;9.60;6.75;;;;;;;13.42;80.68;100682.62;5544770;32;35275;-88
2022/05/16 04:20:11;;;;;;;11.65;6.80;;;;;;;13.55;81.19;100681.00;5543565;32;33612;-88
2022/05/16 04:23:13;;;;;;;9.07;7.20;;;;;;;13.56;81.55;100690.69;5543613;32;33815;-88
2022/05/16 04:26:16;;;;;;;9.82;6.22;;;;;;;13.71;79.96;100690.75;5542410;32;32369;-88
2022/05/16 04:29:19;;;;;;;7.75;5.93;;;;;;;13.76;75.83;100678.03;5543260;32;33672;-88
2022/05/16 04:32:22;;;;;;;11.45;5.70;;;;;;;14.00;74.31;100678.41;5550191;32;33596;-88
2022/05/16 04:35:25;;;;;;;8.55;6.28;;;;;;;14.30;73.48;100695.31;5551312;32;34621;-88
2022/05/16 04:38:28;;;;;;;8.63;6.03;;;;;;;14.52;73.41;100686.88;5544673;32;33123;-88
2022/05/16 04:44:52;;;;;;;;;;;;;;;15.51;68.81;100692.28;5543782;32;35240;-87
2022/05/16 04:47:57;;;;;;;15.85;5.65;;;;;;;15.89;67.14;100694.22;5543574;32;35229;-86
2022/05/16 04:51:00;;;;;;;9.52;5.50;;;;;;;16.00;66.89;100684.66;5542824;32;32938;-89
2022/05/16 04:54:03;;;;;;;10.90;5.70;;;;;;;16.13;66.96;100692.69;5543714;32;34078;-90
2022/05/16 04:57:07;;;;;;;11.68;5.70;;;;;;;16.16;67.22;100700.53;5543215;32;34839;-91
2022/05/16 05:00:12;;;;;;;27.65;5.82;;;;;;;16.32;66.78;100700.34;5543728;32;34023;-90
2022/05/16 05:03:15;;;;;;;13.90;5.72;;;;;;;16.66;65.33;100703.34;5542931;32;32626;-87
2022/05/16 05:06:18;;;;;;;9.63;5.85;;;;;;;17.16;64.06;100697.19;5543790;32;33653;-87
2022/05/16 05:09:20;;;;;;;9.50;5.43;;;;;;;17.56;61.35;100700.56;5544576;32;33860;-87
2022/05/16 05:15:45;;;;;;;8.15;5.05;;;;;;;17.98;59.24;100703.69;5544646;32;33711;-87
2022/05/16 05:18:49;;;;;;;11.45;5.03;;;;;;;18.00;57.18;100699.06;5545172;32;35197;-88
2022/05/16 05:21:51;;;;;;;7.45;5.10;;;;;;;18.41;57.17;100707.59;5551839;32;34197;-87
2022/05/16 05:24:54;;;;;;;10.25;5.55;;;;;;;18.97;55.61;100695.16;5537656;32;34336;-87
2022/05/16 05:28:01;;;;;;;7.93;4.62;;;;;;;19.97;52.26;100691.66;5551627;32;32668;-87
2022/05/16 05:31:12;;;;;;;9.30;5.10;;;;;;;21.89;47.70;100691.97;5551959;32;34176;-88
2022/05/16 05:34:16;;;;;;;10.80;4.45;;;;;;;24.18;41.48;100688.88;5547907;32;34545;-87
2022/05/16 05:37:19;;;;;;;7.62;4.00;;;;;;;24.76;38.74;100697.34;5556318;32;34147;-88
2022/05/16 05:40:22;;;;;;;7.70;4.30;;;;;;;24.56;37.79;100699.41;5525254;32;32522;-88
2022/05/16 05:43:25;;;;;;;9.15;4.20;;;;;;;24.47;36.86;100696.69;5524766;32;32629;-88
2022/05/16 05:46:35;;;;;;;7.80;3.62;;;;;;;23.10;39.61;100702.16;5531591;32;34494;-88
2022/05/16 05:49:38;;;;;;;10.07;4.07;;;;;;;23.20;39.23;100704.81;5517399;32;34994;-88
2022/05/16 05:52:41;;;;;;;7.40;4.20;;;;;;;23.04;39.58;100704.63;5522969;32;32582;-88
2022/05/16 05:55:43;;;;;;;11.05;4.50;;;;;;;22.90;39.25;100701.41;5540648;32;34466;-87
2022/05/16 05:58:46;;;;;;;13.85;4.45;;;;;;;22.68;39.08;100702.66;5517586;32;33000;-87
2022/05/16 06:01:49;;;;;;;7.47;4.05;;;;;;;22.70;39.67;100706.91;5526107;32;32858;-90
2022/05/16 06:04:52;;;;;;;14.23;4.00;;;;;;;23.46;37.06;100698.69;5524799;32;33571;-89
2022/05/16 06:08:01;;;;;;;11.02;4.25;;;;;;;23.93;36.55;100700.31;5542465;26;33896;-90
2022/05/16 06:11:04;;;;;;;7.12;4.30;;;;;;;23.48;37.70;100704.78;5526809;32;32077;-90
2022/05/16 06:14:11;;;;;;;8.00;4.07;;;;;;;22.91;39.51;100707.66;5532506;32;32352;-89
2022/05/16 06:17:13;;;;;;;8.98;4.10;;;;;;;22.19;40.26;100715.22;5521502;32;33183;-89
2022/05/16 06:20:16;;;;;;;6.72;4.12;;;;;;;22.09;41.21;100706.31;5541467;26;33433;-88
2022/05/16 06:23:19;;;;;;;9.23;4.28;;;;;;;22.13;40.49;100714.97;5517047;32;33804;-88
2022/05/16 06:26:22;;;;;;;7.00;3.90;;;;;;;21.30;42.60;100714.31;5591750;26;35090;-88
2022/05/16 06:29:25;;;;;;;15.43;4.05;;;;;;;22.43;40.98;100708.50;5520596;32;32560;-87
2022/05/16 06:32:28;;;;;;;11.88;4.00;;;;;;;23.04;39.39;100701.91;5538312;32;33105;-90
2022/05/16 06:50:51;;;;;;;7.85;4.15;;;;;;;23.59;37.20;100695.63;4743179;26;20106;31
2022/05/16 06:53:55;;;;;;;16.07;4.00;;;;;;;23.90;36.99;100705.19;5540696;32;32599;-90
2022/05/16 06:56:57;;;;;;;6.12;3.55;;;;;;;23.23;39.77;100701.78;5529211;32;32998;-90
2022/05/16 07:00:01;;;;;;;7.53;3.42;;;;;;;23.16;38.70;100695.28;5584081;26;33463;-90
2022/05/16 07:03:04;;;;;;;8.65;3.33;;;;;;;23.92;35.21;100704.03;5525790;32;31563;-89
2022/05/16 07:06:23;;;;;;;12.48;3.58;;;;;;;24.89;32.48;100705.06;5526130;32;32378;-90
2022/05/16 07:09:26;;;;;;;8.93;2.97;;;;;;;24.22;34.47;100717.34;5531145;32;33846;-88
2022/05/16 07:12:30;;;;;;;6.15;2.85;;;;;;;24.18;32.86;100711.37;5533295;32;33902;-90
2022/05/16 07:15:32;;;;;;;23.87;4.53;;;;;;;23.88;32.17;100705.34;5516540;32;33790;-88
2022/05/16 07:18:35;;;;;;;9.43;2.67;;;;;;;24.90;32.81;100712.19;5530495;32;34240;-89
2022/05/16 07:21:38;;;;;;;7.72;2.33;;;;;;;24.28;30.50;100710.44;5516374;32;33002;-88
2022/05/16 07:24:43;;;;;;;3.80;2.55;;;;;;;25.05;29.80;100704.28;5529562;32;34308;-89
2022/05/16 07:27:58;;;;;;;3.45;2.50;;;;;;;24.41;30.71;100702.72;5528239;32;34287;-89
2022/05/16 07:31:02;;;;;;;15.63;2.95;;;;;;;24.30;30.46;100712.00;5509399;32;33460;-88
2022/05/16 07:34:05;;;;;;;14.23;3.15;;;;;;;24.78;31.56;100706.16;5517019;32;32505;-88
2022/05/16 07:37:09;;;;;;;4.28;2.65;;;;;;;24.80;30.77;100708.69;5508543;32;33025;-88
2022/05/16 07:40:12;;;;;;;5.22;2.40;;;;;;;24.92;29.76;100710.16;5513329;32;34561;-90
2022/05/16 07:43:16;;;;;;;15.30;3.08;;;;;;;25.56;28.99;100695.28;5510107;32;32284;-90
2022/05/16 07:46:18;;;;;;;6.28;2.55;;;;;;;26.46;28.62;100695.44;5505953;32;33831;-90
2022/05/16 07:49:22;;;;;;;13.05;3.58;;;;;;;27.02;26.96;100694.59;5522527;32;34736;-89
2022/05/16 07:52:26;;;;;;;5.97;2.70;;;;;;;26.33;26.89;100693.22;5537741;32;34572;-90
2022/05/16 07:55:29;;;;;;;5.25;2.78;;;;;;;26.81;27.23;100701.44;5518036;32;34043;-90
2022/05/16 07:58:34;;;;;;;7.40;2.70;;;;;;;26.31;28.16;100696.16;5558752;26;34781;-90
2022/05/16 08:01:38;;;;;;;4.20;2.40;;;;;;;27.71;26.81;100701.19;5556378;26;32653;-91
2022/05/16 08:12:30;;;;;;;4.57;2.40;;;;;;;26.67;27.58;100702.16;4918329;30;20673;-90
2022/05/16 08:15:35;;;;;;;7.25;2.50;;;;;;;26.27;28.69;100696.66;5520862;32;32972;-92
2022/05/16 08:18:38;;;;;;;5.78;2.70;;;;;;;26.74;27.13;100693.12;5525436;32;32641;-92
2022/05/16 08:21:42;;;;;;;7.12;2.60;;;;;;;26.38;27.81;100690.84;5525312;32;33763;-90
2022/05/16 08:24:45;;;;;;;6.35;2.72;;;;;;;26.80;27.97;100699.72;5525962;32;34750;-93
2022/05/16 09:26:14;;;;;;;6.57;2.58;;;;;;;30.26;22.00;100685.53;2409233;27;20102;-90
2022/05/16 09:33:53;;;;;;;8.90;3.28;;;;;;;31.08;21.64;100676.72;5440472;27;20140;-91
2022/05/16 09:36:56;;;;;;;5.25;2.80;;;;;;;30.41;21.45;100681.84;5362429;33;33702;-89
2022/05/16 09:43:52;;;;;;;6.40;2.37;;;;;;;29.84;22.39;100664.37;5355145;33;32873;-90
2022/05/16 09:47:23;;;;;;;4.75;2.70;;;;;;;31.45;21.52;100658.09;5379119;27;33988;-91
2022/05/16 10:01:45;;;;;;;5.65;3.00;;;;;;;32.58;19.88;100646.41;822681;31;20429;-88
2022/05/16 10:04:55;;;;;;;6.30;2.83;;;;;;;33.79;19.08;100647.63;5413209;32;31855;-89
2022/05/16 10:08:14;;;;;;;5.45;2.97;;;;;;;32.85;19.24;100646.31;5420387;32;33830;-94
2022/05/16 10:11:24;;;;;;;9.48;3.00;;;;;;;32.06;21.09;100638.06;5404861;32;32605;-90
2022/05/16 10:18:00;;;;;;;8.63;2.65;;;;;;;31.68;20.66;100631.31;4828732;30;19954;-88
2022/05/16 10:21:13;;;;;;;6.18;3.00;;;;;;;31.87;21.25;100625.00;5420442;32;34762;-89
2022/05/16 10:24:31;;;;;;;6.97;3.10;;;;;;;31.66;21.04;100620.56;5419012;32;33316;-88
2022/05/16 10:27:38;;;;;;;8.95;3.22;;;;;;;32.79;19.35;100623.28;5409542;32;33901;-89
2022/05/16 10:34:10;;;;;;;3.35;2.55;;;;;;;35.61;17.55;100620.66;5402486;32;32698;-89
2022/05/16 10:37:14;;;;;;;4.53;2.80;;;;;;;35.78;16.54;100619.13;5419660;32;34383;-89
2022/05/16 10:40:36;;;;;;;6.00;2.58;;;;;;;33.89;18.02;100616.87;5404628;32;33188;-89
2022/05/16 10:43:50;;;;;;;5.85;2.70;;;;;;;31.80;20.11;100618.66;5403784;32;33242;-90
2022/05/16 10:47:13;;;;;;;6.68;2.90;;;;;;;30.79;21.11;100616.59;5399557;33;33544;-92
2022/05/16 11:18:03;;;;;;;4.97;2.95;;;;;;;31.50;22.32;100599.91;2409544;30;20101;-86
2022/05/16 11:21:29;;;;;;;8.90;3.28;;;;;;;31.67;22.13;100594.81;5400579;32;32539;-88
2022/05/16 11:24:49;;;;;;;5.95;2.87;;;;;;;30.22;23.76;100586.59;5416044;32;35159;-85
2022/05/16 11:27:58;;;;;;;8.52;3.00;;;;;;;30.77;22.41;100585.00;5411161;32;34611;-87
2022/05/16 11:31:05;;;;;;;7.22;3.12;;;;;;;30.87;22.38;100579.13;5413659;32;34070;-86
2022/05/16 11:34:13;;;;;;;10.57;3.50;;;;;;;30.48;22.56;100574.09;5419532;32;34216;-86
2022/05/16 11:37:46;;;;;;;7.40;2.97;;;;;;;28.94;23.83;100571.84;5402340;32;33708;-87
2022/05/16 11:41:18;;;;;;;4.20;3.10;;;;;;;29.25;24.10;100565.22;5411747;32;34024;-89
2022/05/16 11:45:06;;;;;;;3.65;3.12;;;;;;;28.92;25.18;100569.31;5399721;32;32925;-88
2022/05/16 11:48:50;;;;;;;4.25;3.35;;;;;;;29.92;24.75;100561.38;5372849;32;33744;-87
2022/05/16 11:52:51;;;;;;;9.45;3.22;;;;;;;29.77;23.44;100562.31;5403393;32;34498;-88
2022/05/16 12:03:15;;;;;;;5.12;3.40;;;;;;;30.03;24.33;100547.12;5408460;32;34545;-86
2022/05/16 12:06:54;;;;;;;11.70;3.35;;;;;;;29.52;24.27;100543.62;5421054;32;32434;-86
2022/05/16 12:10:24;;;;;;;7.47;3.42;;;;;;;29.35;24.54;100543.03;5427980;32;33935;-86
2022/05/16 12:13:32;;;;;;;6.13;3.33;;;;;;;29.27;25.46;100532.25;5400770;32;33325;-89
2022/05/16 12:16:50;;;;;;;7.32;4.03;;;;;;;29.39;25.24;100532.56;5423239;32;34651;-89
2022/05/16 12:19:54;;;;;;;15.35;3.55;;;;;;;28.99;24.51;100530.31;5428324;32;34466;-86
2022/05/16 12:22:56;;;;;;;6.97;3.50;;;;;;;29.15;25.33;100524.59;5461700;27;34674;-88
2022/05/16 12:26:09;;;;;;;7.10;3.33;;;;;;;29.89;24.68;100523.47;5442833;27;33825;-89
2022/05/16 12:29:12;;;;;;;8.10;3.72;;;;;;;30.12;24.35;100518.59;5431423;32;32442;-87
2022/05/16 12:32:30;;;;;;;4.82;3.58;;;;;;;29.65;24.30;100512.81;5455933;27;35526;-89
2022/05/16 12:35:39;;;;;;;10.32;3.78;;;;;;;28.77;26.35;100506.53;5436365;32;33454;-86
2022/05/16 12:38:44;;;;;;;5.27;3.43;;;;;;;29.21;26.19;100503.81;5430075;32;34825;-86
2022/05/16 12:41:59;;;;;;;5.47;3.60;;;;;;;29.37;25.84;100510.91;5421578;32;33797;-86
2022/05/16 12:45:19;;;;;;;5.68;3.75;;;;;;;28.93;26.29;100496.44;5416512;32;33816;-87
2022/05/16 12:48:41;;;;;;;7.40;3.65;;;;;;;29.46;25.72;100484.28;5399967;32;32696;-86
2022/05/16 12:51:51;;;;;;;9.38;3.92;;;;;;;29.32;26.63;100489.62;5406693;32;33948;-87
2022/05/16 12:55:16;;;;;;;5.72;3.72;;;;;;;29.15;25.19;100477.31;5421725;32;32393;-87
2022/05/16 12:58:55;;;;;;;7.30;3.80;;;;;;;28.91;26.01;100469.34;5412294;32;32660;-91
2022/05/16 13:02:17;;;;;;;6.45;3.78;;;;;;;28.79;26.36;100457.22;5406195;32;33316;-86
2022/05/16 13:05:29;;;;;;;8.02;4.00;;;;;;;28.96;26.66;100459.72;5414149;32;33488;-86
2022/05/16 13:08:49;;;;;;;8.90;3.92;;;;;;;28.23;28.32;100453.28;5397112;32;34830;-87
2022/05/16 13:12:27;;;;;;;7.75;3.47;;;;;;;28.01;28.65;100453.22;5416426;32;34531;-87
2022/05/16 13:15:44;;;;;;;8.45;3.90;;;;;;;27.81;28.27;100447.47;5402767;32;32500;-87
2022/05/16 13:18:59;;;;;;;7.95;4.10;;;;;;;27.45;29.81;100447.16;5419394;32;34274;-86
2022/05/16 13:22:22;;;;;;;13.85;4.12;;;;;;;27.09;30.52;100438.84;5429648;32;33751;-86
2022/05/16 13:25:27;;;;;;;9.95;4.00;;;;;;;27.15;29.71;100440.81;5402471;32;32535;-86
2022/05/16 13:31:55;;;;;;;6.82;3.60;;;;;;;27.25;29.58;100443.28;5393550;32;32536;-87
2022/05/16 13:35:02;;;;;;;11.30;3.60;;;;;;;27.80;28.83;100433.00;5429834;32;33979;-87
2022/05/16 13:38:07;;;;;;;8.82;3.83;;;;;;;27.64;29.34;100434.03;5416447;32;33957;-87
2022/05/16 13:41:10;;;;;;;4.95;3.67;;;;;;;27.96;29.43;100431.94;5402729;32;33375;-86
2022/05/16 13:44:13;;;;;;;7.45;4.07;;;;;;;27.95;29.82;100429.44;5418865;32;33921;-87
2022/05/16 13:47:21;;;;;;;6.68;3.75;;;;;;;28.35;28.80;100424.47;5426757;32;34267;-86
2022/05/16 13:50:30;;;;;;;6.43;3.83;;;;;;;28.30;29.27;100423.37;5421382;32;35227;-91
